Time;durP1;ratioP1;P1;durP2;ratioP2;P2;SDS_P1;SDS_P2;PMS_P1;PMS_P2;Temp;Humidity;BMP_temperature;BMP_pressure;BME280_temperature;BME280_humidity;BME280_pressure;Samples;Min_cycle;Max_cycle;Signal;HPM_P1;HPM_P2
2023/08/01 00:00:15;;;;;;;26.45;18.25;;;;;;;19.64;100.00;92106.56;4795241;30;20142;-84
2023/08/01 00:02:43;;;;;;;23.75;18.92;;;;;;;19.63;100.00;92093.63;4796934;29;20035;-83
2023/08/01 00:05:09;;;;;;;27.23;21.10;;;;;;;19.62;100.00;92105.38;4793924;29;20054;-83
2023/08/01 00:07:35;;;;;;;28.80;21.60;;;;;;;19.59;100.00;92100.75;4791807;29;20050;-83
2023/08/01 00:10:01;;;;;;;29.08;22.40;;;;;;;19.56;100.00;92097.69;4792475;30;20040;-82
2023/08/01 00:12:27;;;;;;;27.88;22.13;;;;;;;19.58;100.00;92091.28;4791333;30;20093;-82
2023/08/01 00:14:53;;;;;;;30.42;22.77;;;;;;;19.53;100.00;92087.00;4791219;30;20047;-81
2023/08/01 00:17:18;;;;;;;31.35;22.88;;;;;;;19.48;100.00;92097.94;4793113;29;20112;-82
2023/08/01 00:19:45;;;;;;;31.75;22.92;;;;;;;19.44;100.00;92103.16;4792744;30;20043;-82
2023/08/01 00:22:10;;;;;;;38.67;24.92;;;;;;;19.51;100.00;92116.56;4791817;30;20039;-82
2023/08/01 00:24:41;;;;;;;37.90;26.17;;;;;;;19.40;100.00;92090.94;4793085;30;20062;-82
2023/08/01 00:27:09;;;;;;;38.60;27.65;;;;;;;19.24;100.00;92093.66;4792000;29;20051;-82
2023/08/01 00:29:34;;;;;;;37.30;25.35;;;;;;;19.12;100.00;92060.09;4791613;29;20043;-82
2023/08/01 00:32:04;;;;;;;39.85;27.67;;;;;;;19.12;100.00;92066.16;4791021;30;20055;-82
2023/08/01 00:34:30;;;;;;;37.78;25.42;;;;;;;19.20;100.00;92075.00;4792920;30;20085;-83
2023/08/01 00:36:57;;;;;;;36.22;25.65;;;;;;;19.17;100.00;92070.41;4790607;29;20039;-81
2023/08/01 00:39:23;;;;;;;34.83;25.38;;;;;;;19.15;100.00;92067.34;4790538;30;20050;-83
2023/08/01 00:41:49;;;;;;;39.28;27.38;;;;;;;19.13;100.00;92056.31;4790832;29;20039;-83
2023/08/01 00:44:14;;;;;;;41.33;28.95;;;;;;;19.10;100.00;92059.66;4790058;29;20074;-83
2023/08/01 00:46:40;;;;;;;44.55;29.90;;;;;;;19.07;100.00;92060.34;4789025;29;20054;-83
2023/08/01 00:49:08;;;;;;;41.85;29.92;;;;;;;19.05;100.00;92051.97;4788893;30;20236;-82
2023/08/01 00:51:33;;;;;;;40.63;29.27;;;;;;;19.07;100.00;92057.69;4774808;30;20043;-82
2023/08/01 00:54:00;;;;;;;42.00;28.20;;;;;;;19.04;100.00;92055.75;4791111;30;20093;-83
2023/08/01 00:56:26;;;;;;;45.40;31.27;;;;;;;19.02;100.00;92055.31;4790701;29;20059;-82
2023/08/01 00:58:52;;;;;;;51.30;31.60;;;;;;;19.02;100.00;92053.44;4789612;29;20075;-83
2023/08/01 01:01:18;;;;;;;46.08;31.73;;;;;;;19.04;100.00;92043.25;4790322;29;20046;-83
2023/08/01 01:03:44;;;;;;;46.35;32.03;;;;;;;19.01;100.00;92036.00;4791387;30;20036;-83
2023/08/01 01:06:16;;;;;;;48.67;31.45;;;;;;;19.10;100.00;92041.84;4790459;29;20081;-84
2023/08/01 01:08:42;;;;;;;49.88;31.60;;;;;;;19.12;100.00;92041.50;4789786;30;20073;-82
2023/08/01 01:11:07;;;;;;;45.80;30.10;;;;;;;19.11;100.00;92034.66;4789780;29;20090;-83
2023/08/01 01:13:34;;;;;;;45.25;31.83;;;;;;;19.11;100.00;92022.16;4788580;29;20055;-81
2023/08/01 01:16:01;;;;;;;46.80;30.02;;;;;;;19.10;100.00;92020.63;4772044;29;20047;-83
2023/08/01 01:18:26;;;;;;;50.35;33.22;;;;;;;19.09;100.00;92019.09;4773960;30;20502;-83
2023/08/01 01:20:52;;;;;;;53.05;31.83;;;;;;;19.06;100.00;92019.03;4789469;29;20043;-83
2023/08/01 01:23:21;;;;;;;44.20;29.63;;;;;;;19.06;100.00;92016.38;4788490;29;20039;-84
2023/08/01 01:25:51;;;;;;;43.38;29.83;;;;;;;18.96;100.00;92008.97;4789787;29;20044;-84
2023/08/01 01:28:17;;;;;;;42.95;28.95;;;;;;;19.01;100.00;92014.00;4789982;29;20042;-84
2023/08/01 01:30:44;;;;;;;53.60;33.25;;;;;;;18.81;100.00;92013.22;4790863;29;20612;-84
2023/08/01 01:33:09;;;;;;;51.63;31.80;;;;;;;18.74;100.00;92000.56;4789889;29;20081;-84
2023/08/01 01:35:36;;;;;;;53.90;33.15;;;;;;;18.74;100.00;91995.28;4788679;30;20043;-84
2023/08/01 01:38:05;;;;;;;53.22;33.47;;;;;;;18.73;100.00;91991.84;4804610;29;20043;-83
2023/08/01 01:40:32;;;;;;;54.63;34.80;;;;;;;18.76;100.00;91979.78;4790527;30;20042;-84
2023/08/01 01:42:59;;;;;;;55.67;34.03;;;;;;;18.83;100.00;91981.84;4774318;30;20410;-83
2023/08/01 01:45:24;;;;;;;57.30;33.22;;;;;;;18.86;100.00;91968.63;4773812;30;20046;-81
2023/08/01 01:47:55;;;;;;;48.75;30.98;;;;;;;18.84;100.00;91976.16;4790991;29;20047;-84
2023/08/01 01:50:21;;;;;;;51.65;31.50;;;;;;;18.87;100.00;91970.19;4805026;29;20071;-83
2023/08/01 01:52:47;;;;;;;50.85;32.08;;;;;;;18.88;100.00;91965.66;4789798;30;20470;-82
2023/08/01 01:55:13;;;;;;;56.70;33.20;;;;;;;18.86;100.00;91968.63;4790293;30;20047;-83
2023/08/01 01:57:40;;;;;;;51.67;33.08;;;;;;;18.88;100.00;91966.41;4775378;30;20050;-83
2023/08/01 02:00:27;;;;;;;53.10;32.80;;;;;;;18.88;100.00;91971.72;4789965;30;20031;-83
2023/08/01 02:02:53;;;;;;;51.28;33.20;;;;;;;18.89;100.00;91969.81;4791315;30;20090;-83
2023/08/01 02:05:19;;;;;;;52.80;33.65;;;;;;;18.87;100.00;91964.13;4791360;30;20510;-83
2023/08/01 02:07:46;;;;;;;54.47;33.25;;;;;;;18.87;100.00;91964.88;4790778;29;20035;-83
2023/08/01 02:10:12;;;;;;;52.38;32.72;;;;;;;18.85;100.00;91964.47;4789836;30;20058;-83
2023/08/01 02:12:37;;;;;;;53.58;33.15;;;;;;;18.87;100.00;91964.13;4788444;29;20438;-82
2023/08/01 02:15:05;;;;;;;50.40;31.40;;;;;;;18.87;100.00;91959.59;4787733;30;20096;-81
2023/08/01 02:17:31;;;;;;;54.58;34.30;;;;;;;18.86;100.00;91955.38;4788523;29;20044;-83
2023/08/01 02:19:57;;;;;;;57.85;35.55;;;;;;;18.90;100.00;91958.09;4773918;30;20047;-83
2023/08/01 02:22:25;;;;;;;54.42;31.48;;;;;;;18.91;100.00;91959.63;4775038;30;20043;-83
2023/08/01 02:24:51;;;;;;;56.60;34.83;;;;;;;18.88;100.00;91955.03;4790169;30;20537;-83
2023/08/01 02:27:21;;;;;;;53.72;33.80;;;;;;;18.87;100.00;91953.50;4788241;29;20067;-84
2023/08/01 02:29:49;;;;;;;56.17;33.22;;;;;;;18.85;100.00;91951.19;4789684;30;20448;-84
2023/08/01 02:32:31;;;;;;;55.30;33.33;;;;;;;18.86;100.00;91947.41;4789829;30;20039;-83
2023/08/01 02:34:57;;;;;;;60.42;34.83;;;;;;;18.89;100.00;91938.78;4805073;29;20062;-84
2023/08/01 02:37:23;;;;;;;59.35;34.72;;;;;;;18.83;100.00;91936.75;4789887;29;20138;-84
2023/08/01 02:39:49;;;;;;;52.15;32.35;;;;;;;18.77;100.00;91938.91;4788634;29;20074;-83
2023/08/01 02:42:14;;;;;;;52.28;32.15;;;;;;;18.73;100.00;91933.53;4789744;29;20050;-84
2023/08/01 02:44:40;;;;;;;51.90;32.05;;;;;;;18.76;100.00;91933.94;4789126;30;20031;-84
2023/08/01 02:47:06;;;;;;;51.95;32.00;;;;;;;18.78;100.00;91935.16;4789012;29;20047;-84
2023/08/01 02:49:32;;;;;;;53.38;33.33;;;;;;;18.78;100.00;91935.16;4803328;29;20510;-82
2023/08/01 02:51:58;;;;;;;56.53;34.13;;;;;;;18.78;100.00;91935.16;4773473;30;20545;-84
2023/08/01 02:54:24;;;;;;;56.97;31.75;;;;;;;18.78;100.00;91932.50;4790102;29;20383;-84
2023/08/01 02:56:51;;;;;;;57.50;33.72;;;;;;;18.81;100.00;91928.38;4804012;29;20040;-84
2023/08/01 02:59:19;;;;;;;58.90;33.63;;;;;;;18.82;100.00;91920.06;4774026;30;20047;-84
2023/08/01 03:01:45;;;;;;;57.08;35.45;;;;;;;18.79;100.00;91926.09;4791270;29;20046;-84
2023/08/01 03:04:14;;;;;;;56.40;31.60;;;;;;;18.81;100.00;91920.44;4790225;29;20313;-84
2023/08/01 03:06:40;;;;;;;50.90;31.35;;;;;;;18.79;100.00;91918.13;4789916;29;20490;-84
2023/08/01 03:09:07;;;;;;;58.17;33.13;;;;;;;18.85;100.00;91914.09;4790498;30;20035;-85
2023/08/01 03:11:43;;;;;;;45.83;27.20;;;;;;;18.76;100.00;91915.41;4774423;30;20047;-85
2023/08/01 03:14:09;;;;;;;47.92;28.23;;;;;;;18.72;100.00;91910.00;4775597;30;20052;-84
2023/08/01 03:16:35;;;;;;;54.40;30.10;;;;;;;18.75;100.00;91914.59;4798647;29;20051;-82
2023/08/01 03:19:06;;;;;;;60.13;35.42;;;;;;;18.79;100.00;91910.19;4775402;30;20043;-83
2023/08/01 03:21:33;;;;;;;57.22;33.83;;;;;;;18.77;100.00;91909.75;4790094;30;20517;-84
2023/08/01 03:24:12;;;;;;;62.53;34.33;;;;;;;18.77;100.00;91911.63;4790157;30;20035;-84
2023/08/01 03:26:38;;;;;;;35.97;21.85;;;;;;;18.68;100.00;91914.47;4790892;29;20514;-84
2023/08/01 03:29:05;;;;;;;33.38;19.95;;;;;;;18.51;100.00;91916.44;4790594;30;20043;-84
2023/08/01 03:31:33;;;;;;;31.27;20.17;;;;;;;18.50;100.00;91920.19;4775032;30;20084;-83
2023/08/01 03:33:58;;;;;;;33.22;20.65;;;;;;;18.52;100.00;91919.84;4790782;29;20048;-83
2023/08/01 03:36:25;;;;;;;51.33;22.35;;;;;;;18.54;100.00;91924.81;4789302;29;20047;-83
2023/08/01 03:38:51;;;;;;;36.75;20.77;;;;;;;18.54;100.00;91924.81;4789853;29;20525;-84
2023/08/01 03:41:17;;;;;;;36.70;21.38;;;;;;;18.54;100.00;91924.81;4776899;30;20051;-83
2023/08/01 03:43:43;;;;;;;41.78;24.60;;;;;;;18.57;100.00;91929.41;4791391;30;20031;-84
2023/08/01 03:46:09;;;;;;;42.58;25.35;;;;;;;18.61;100.00;91931.00;4792070;29;20502;-83
2023/08/01 03:48:35;;;;;;;40.10;25.00;;;;;;;18.61;100.00;91920.41;4792521;30;20122;-83
2023/08/01 03:51:03;;;;;;;53.83;28.45;;;;;;;18.64;100.00;91924.25;4792909;29;20359;-83
2023/08/01 03:53:29;;;;;;;56.65;30.30;;;;;;;18.66;100.00;91914.06;4777652;30;20467;-82
2023/08/01 03:55:55;;;;;;;60.28;31.13;;;;;;;18.67;100.00;91907.66;4791328;29;20130;-84
2023/08/01 03:58:21;;;;;;;50.78;29.58;;;;;;;18.70;100.00;91904.28;4777363;30;20046;-84
2023/08/01 04:00:46;;;;;;;52.10;29.77;;;;;;;18.76;100.00;91910.84;4777001;30;20054;-84
2023/08/01 04:03:12;;;;;;;50.17;27.48;;;;;;;18.81;100.00;91907.94;4777386;30;20098;-84
2023/08/01 04:05:37;;;;;;;49.90;28.25;;;;;;;18.80;100.00;91903.78;4777271;30;20146;-84
2023/08/01 04:08:04;;;;;;;44.85;27.00;;;;;;;18.70;100.00;91899.75;4792238;29;20042;-83
2023/08/01 04:10:30;;;;;;;46.40;26.10;;;;;;;18.72;100.00;91904.72;4792291;30;20031;-83
2023/08/01 04:12:55;;;;;;;42.20;25.77;;;;;;;18.67;100.00;91902.34;4791658;30;20063;-84
2023/08/01 04:15:21;;;;;;;40.63;22.55;;;;;;;18.64;100.00;91898.53;4776906;30;20047;-83
2023/08/01 04:17:47;;;;;;;38.25;22.90;;;;;;;18.62;100.00;91899.97;4791004;29;20575;-83
2023/08/01 04:20:14;;;;;;;33.40;20.58;;;;;;;18.59;100.00;91896.13;4792162;30;20058;-84
2023/08/01 04:22:39;;;;;;;30.73;19.60;;;;;;;18.56;100.00;91902.16;4791158;30;20044;-84
2023/08/01 04:25:11;;;;;;;34.97;20.17;;;;;;;18.51;100.00;91895.25;4792369;30;20558;-83
2023/08/01 04:27:47;;;;;;;40.42;20.45;;;;;;;18.52;100.00;91888.06;4793173;29;20043;-84
2023/08/01 04:30:13;;;;;;;33.22;20.83;;;;;;;18.53;100.00;91886.94;4776741;30;20044;-83
2023/08/01 04:32:39;;;;;;;33.70;21.33;;;;;;;18.55;100.00;91883.94;4792449;30;20035;-82
2023/08/01 04:35:05;;;;;;;34.13;21.55;;;;;;;18.55;100.00;91879.38;4791715;30;20050;-84
2023/08/01 04:37:31;;;;;;;39.88;22.88;;;;;;;18.58;100.00;91886.66;4793533;29;20050;-83
2023/08/01 04:40:00;;;;;;;43.03;23.52;;;;;;;18.57;100.00;91882.47;4792063;30;20039;-83
2023/08/01 04:42:26;;;;;;;43.10;23.55;;;;;;;18.56;100.00;91877.53;4791454;30;20035;-84
2023/08/01 04:44:52;;;;;;;45.20;24.92;;;;;;;18.59;100.00;91876.81;4777000;30;20054;-84
2023/08/01 04:47:24;;;;;;;40.70;23.73;;;;;;;18.56;100.00;91869.56;4791692;29;20530;-85
2023/08/01 04:49:50;;;;;;;49.13;25.73;;;;;;;18.51;100.00;91874.03;4791001;29;20071;-84
2023/08/01 04:52:15;;;;;;;43.17;26.10;;;;;;;18.51;100.00;91868.75;4791805;30;20093;-84
2023/08/01 04:54:41;;;;;;;44.88;25.77;;;;;;;18.51;100.00;91873.28;4790710;29;20035;-84
2023/08/01 04:57:07;;;;;;;51.30;26.92;;;;;;;18.50;100.00;91874.38;4790491;29;20099;-84
2023/08/01 04:59:34;;;;;;;45.58;25.85;;;;;;;18.48;100.00;91879.25;4790903;29;20498;-83
2023/08/01 05:02:00;;;;;;;46.63;26.45;;;;;;;18.49;100.00;91876.28;4791520;29;20069;-83
2023/08/01 05:04:27;;;;;;;44.60;27.45;;;;;;;18.49;100.00;91878.91;4776569;30;20452;-84
2023/08/01 05:06:53;;;;;;;47.00;26.77;;;;;;;18.52;100.00;91875.56;4792369;29;20043;-85
2023/08/01 05:09:19;;;;;;;49.67;27.80;;;;;;;18.55;100.00;91873.31;4790769;30;20049;-84
2023/08/01 05:11:44;;;;;;;53.63;28.83;;;;;;;18.56;100.00;91874.88;4791710;29;20122;-84
2023/08/01 05:14:10;;;;;;;55.22;29.58;;;;;;;18.55;100.00;91873.31;4791932;30;20532;-84
2023/08/01 05:16:35;;;;;;;52.17;30.17;;;;;;;18.55;100.00;91862.72;4792545;29;20414;-84
2023/08/01 05:19:01;;;;;;;49.35;28.98;;;;;;;18.53;100.00;91865.75;4792673;29;20502;-83
2023/08/01 05:21:38;;;;;;;54.42;31.45;;;;;;;18.55;100.00;91868.78;4791698;30;20119;-84
2023/08/01 05:24:04;;;;;;;51.97;29.77;;;;;;;18.58;100.00;91862.81;4792342;30;20114;-84
2023/08/01 05:26:30;;;;;;;66.40;30.20;;;;;;;18.61;100.00;91871.94;4791645;29;20047;-83
2023/08/01 05:28:56;;;;;;;49.55;27.77;;;;;;;18.61;100.00;91869.28;4792224;29;20047;-84
2023/08/01 05:31:22;;;;;;;54.45;30.70;;;;;;;18.67;100.00;91867.91;4790411;30;20414;-85
2023/08/01 05:33:48;;;;;;;52.60;30.48;;;;;;;18.67;100.00;91857.28;4792068;30;20046;-85
2023/08/01 05:36:30;;;;;;;50.65;29.88;;;;;;;18.69;100.00;91847.88;4791003;29;20503;-84
2023/08/01 05:38:57;;;;;;;51.53;29.48;;;;;;;18.72;100.00;91852.47;4792083;30;20050;-83
2023/08/01 05:41:41;;;;;;;50.25;29.70;;;;;;;18.78;100.00;91873.41;4792089;29;20388;-85
2023/08/01 05:44:06;;;;;;;54.80;29.00;;;;;;;18.79;100.00;91867.75;4790650;30;20134;-84
2023/08/01 05:46:32;;;;;;;54.08;30.20;;;;;;;18.80;100.00;91866.66;4790691;29;20508;-84
2023/08/01 05:48:59;;;;;;;54.83;29.83;;;;;;;18.85;100.00;91870.91;4775815;30;20410;-83
2023/08/01 05:51:25;;;;;;;51.90;31.70;;;;;;;18.85;100.00;91865.59;4775780;30;20405;-83
2023/08/01 05:53:57;;;;;;;48.78;29.60;;;;;;;18.86;100.00;91861.81;4792469;30;20098;-83
2023/08/01 05:56:23;;;;;;;50.92;29.63;;;;;;;18.85;100.00;91863.69;4792371;29;20043;-83
2023/08/01 05:58:50;;;;;;;52.13;29.23;;;;;;;18.92;100.00;91866.47;4791963;29;20108;-84
2023/08/01 06:01:23;;;;;;;48.15;28.63;;;;;;;18.95;100.00;91859.69;4789621;30;20074;-83
2023/08/01 06:03:48;;;;;;;44.03;25.58;;;;;;;19.02;100.00;91859.06;4791483;30;20096;-84
2023/08/01 06:06:14;;;;;;;43.28;26.25;;;;;;;19.04;100.00;91856.81;4790678;29;20047;-84
2023/08/01 06:08:41;;;;;;;39.78;25.23;;;;;;;18.99;100.00;91865.06;4791154;30;20031;-84
2023/08/01 06:11:06;;;;;;;42.47;23.73;;;;;;;18.93;100.00;91870.66;4791018;29;20142;-84
2023/08/01 06:13:32;;;;;;;31.33;19.77;;;;;;;18.86;100.00;91875.81;4789410;30;20063;-84
2023/08/01 06:15:58;;;;;;;33.75;19.85;;;;;;;18.86;100.00;91872.41;4790038;29;20039;-84
2023/08/01 06:18:23;;;;;;;32.08;20.20;;;;;;;18.91;100.00;91869.47;4774870;30;20043;-84
2023/08/01 06:21:04;;;;;;;31.23;19.25;;;;;;;18.89;100.00;91871.69;4790500;29;20039;-84
2023/08/01 06:23:29;;;;;;;29.27;18.48;;;;;;;18.92;100.00;91866.47;4791168;30;20098;-83
2023/08/01 06:25:55;;;;;;;37.40;21.77;;;;;;;19.00;100.00;91862.03;4790971;29;20039;-84
2023/08/01 06:28:21;;;;;;;41.42;22.38;;;;;;;19.05;100.00;91859.13;4786376;30;20484;-82
2023/08/01 06:30:46;;;;;;;35.47;21.83;;;;;;;19.11;100.00;91863.00;4797139;29;20047;-80
2023/08/01 06:33:12;;;;;;;45.55;22.38;;;;;;;19.14;100.00;91853.59;4785301;30;20035;-80
2023/08/01 06:35:37;;;;;;;37.60;21.65;;;;;;;19.21;100.00;91852.94;4786680;30;20087;-80
2023/08/01 06:38:03;;;;;;;45.58;20.90;;;;;;;19.23;100.00;91848.00;4788283;29;20100;-81
2023/08/01 06:40:29;;;;;;;34.65;20.23;;;;;;;19.33;100.00;91842.88;4794549;29;20050;-79
2023/08/01 06:42:54;;;;;;;33.83;20.02;;;;;;;19.64;100.00;91840.31;4781416;30;20039;-79
2023/08/01 06:45:20;;;;;;;31.70;20.35;;;;;;;19.99;100.00;91850.66;4783476;30;20043;-80
2023/08/01 06:47:45;;;;;;;34.95;18.50;;;;;;;20.27;100.00;91857.50;4785980;29;20106;-79
2023/08/01 06:50:11;;;;;;;33.83;17.52;;;;;;;20.63;100.00;91860.59;4785934;29;20511;-80
2023/08/01 06:52:36;;;;;;;28.88;16.20;;;;;;;20.68;100.00;91852.28;4787617;30;20047;-80
2023/08/01 06:55:02;;;;;;;33.75;16.65;;;;;;;20.88;100.00;91845.66;4799500;29;20043;-81
2023/08/01 06:57:28;;;;;;;26.63;16.10;;;;;;;20.70;100.00;91845.47;4787870;29;20460;-81
2023/08/01 06:59:54;;;;;;;28.10;17.27;;;;;;;20.64;100.00;91851.47;4787839;30;20175;-81
2023/08/01 07:02:19;;;;;;;27.98;17.83;;;;;;;20.09;100.00;91854.63;4789309;29;20407;-83
2023/08/01 07:04:45;;;;;;;33.60;18.98;;;;;;;19.83;100.00;91847.41;4786710;30;20051;-84
2023/08/01 07:07:10;;;;;;;32.20;19.80;;;;;;;19.70;100.00;91849.50;4787079;30;20055;-82
2023/08/01 07:09:36;;;;;;;28.63;15.82;;;;;;;19.65;100.00;91841.84;4788046;29;20043;-81
2023/08/01 07:12:02;;;;;;;33.28;17.70;;;;;;;19.62;100.00;91843.31;4783600;30;20494;-82
2023/08/01 07:14:28;;;;;;;28.83;15.38;;;;;;;19.56;100.00;91847.41;4789069;29;20055;-81
2023/08/01 07:16:54;;;;;;;27.23;15.70;;;;;;;19.63;100.00;91844.06;4787984;30;20449;-81
2023/08/01 07:19:19;;;;;;;25.73;15.25;;;;;;;19.75;100.00;91844.69;4786780;29;20498;-81
2023/08/01 07:21:47;;;;;;;27.38;14.63;;;;;;;19.87;100.00;91853.56;4789889;30;20518;-80
2023/08/01 07:24:14;;;;;;;27.27;15.25;;;;;;;20.01;100.00;91856.41;4789408;29;20122;-79
2023/08/01 07:26:39;;;;;;;22.95;13.90;;;;;;;20.01;100.00;91859.03;4791479;29;20468;-79
2023/08/01 07:29:05;;;;;;;27.35;14.63;;;;;;;20.13;100.00;91852.78;4800561;29;20421;-79
2023/08/01 07:31:31;;;;;;;25.38;13.32;;;;;;;20.19;100.00;91843.34;4789160;29;20060;-78
2023/08/01 07:33:56;;;;;;;31.38;15.35;;;;;;;20.12;100.00;91846.66;4789220;30;20051;-80
2023/08/01 07:36:22;;;;;;;27.50;14.07;;;;;;;20.21;100.00;91840.31;4791459;29;20085;-79
2023/08/01 07:38:47;;;;;;;29.50;14.55;;;;;;;19.96;100.00;91843.44;4789613;29;20727;-80
2023/08/01 07:41:13;;;;;;;26.50;14.20;;;;;;;20.05;100.00;91838.63;4791465;30;20111;-80
2023/08/01 07:43:38;;;;;;;24.67;13.35;;;;;;;20.05;100.00;91833.31;4788878;30;20050;-80
2023/08/01 07:46:04;;;;;;;24.98;15.02;;;;;;;19.95;100.00;91833.94;4788993;29;20063;-80
2023/08/01 07:48:30;;;;;;;27.48;14.77;;;;;;;19.80;100.00;91834.88;4776477;30;20039;-80
2023/08/01 07:50:55;;;;;;;30.48;14.70;;;;;;;20.06;100.00;91840.16;4791457;29;20486;-80
2023/08/01 07:53:21;;;;;;;32.05;17.58;;;;;;;19.92;100.00;91835.41;4786322;30;20043;-81
2023/08/01 07:55:46;;;;;;;26.60;15.75;;;;;;;19.88;100.00;91836.47;4788661;29;20118;-80
2023/08/01 07:58:12;;;;;;;23.58;12.90;;;;;;;19.94;100.00;91838.47;4790276;29;20043;-81
2023/08/01 08:00:38;;;;;;;29.48;15.65;;;;;;;19.93;100.00;91822.91;4788804;29;20039;-83
2023/08/01 08:03:05;;;;;;;27.25;15.13;;;;;;;20.14;100.00;91823.16;4792243;30;20119;-81
2023/08/01 08:05:31;;;;;;;30.25;14.73;;;;;;;20.50;100.00;91817.50;4788611;29;20064;-84
2023/08/01 08:07:57;;;;;;;24.27;14.30;;;;;;;20.55;100.00;91817.94;4769308;30;20043;-82
2023/08/01 08:10:22;;;;;;;30.85;14.30;;;;;;;20.78;100.00;91814.38;4785232;29;20040;-84
2023/08/01 08:12:48;;;;;;;29.10;17.05;;;;;;;21.13;100.00;91815.84;4802515;29;20055;-81
2023/08/01 08:15:15;;;;;;;29.63;16.05;;;;;;;21.14;100.00;91812.03;4803782;29;20048;-84
2023/08/01 08:17:41;;;;;;;28.92;14.60;;;;;;;21.01;100.00;91808.91;4787766;29;20047;-83
2023/08/01 08:20:07;;;;;;;34.65;16.38;;;;;;;20.57;100.00;91820.25;4789102;29;20466;-83
2023/08/01 08:22:32;;;;;;;33.65;16.95;;;;;;;20.49;100.00;91816.75;4788310;29;20035;-81
2023/08/01 08:24:58;;;;;;;34.15;17.10;;;;;;;20.63;100.00;91816.16;4786501;30;20486;-83
2023/08/01 08:27:25;;;;;;;39.55;16.90;;;;;;;21.00;100.00;91808.13;4787245;30;20035;-82
2023/08/01 08:29:50;;;;;;;25.42;15.57;;;;;;;21.27;100.00;91807.97;4790838;29;20083;-85
2023/08/01 08:32:16;;;;;;;28.50;13.35;;;;;;;21.48;100.00;91798.63;4773175;30;20077;-84
2023/08/01 08:34:42;;;;;;;25.60;14.32;;;;;;;21.73;100.00;91802.25;4788438;29;20184;-83
2023/08/01 08:37:08;;;;;;;25.95;15.27;;;;;;;21.88;100.00;91795.06;4781509;29;20047;-83
2023/08/01 08:39:33;;;;;;;23.20;11.25;;;;;;;21.58;100.00;91798.72;4785610;30;20085;-83
2023/08/01 08:41:59;;;;;;;24.75;12.02;;;;;;;21.85;100.00;91801.16;4791285;29;20046;-83
2023/08/01 08:44:24;;;;;;;23.95;13.75;;;;;;;22.13;100.00;91799.75;4790823;30;20506;-83
2023/08/01 08:46:55;;;;;;;21.85;12.23;;;;;;;22.43;100.00;91804.88;4789799;29;20050;-83
2023/08/01 08:49:21;;;;;;;21.70;11.35;;;;;;;22.50;100.00;91804.88;4791008;29;20043;-82
2023/08/01 08:51:48;;;;;;;23.27;11.73;;;;;;;22.42;100.00;91808.66;4790954;29;20403;-82
2023/08/01 08:54:16;;;;;;;27.92;12.10;;;;;;;22.33;100.00;91809.00;4791080;30;20048;-84
2023/08/01 08:56:42;;;;;;;27.35;12.52;;;;;;;22.41;100.00;91812.47;4790505;29;20043;-84
2023/08/01 08:59:10;;;;;;;26.70;13.20;;;;;;;22.17;100.00;91803.22;4791597;30;20066;-82
2023/08/01 09:01:39;;;;;;;24.08;12.20;;;;;;;22.24;100.00;91798.69;4789900;30;20039;-83
2023/08/01 09:04:06;;;;;;;24.20;11.20;;;;;;;22.15;100.00;91789.50;4791094;29;20069;-84
2023/08/01 09:06:39;;;;;;;26.00;11.68;;;;;;;22.42;100.00;91782.75;4775433;30;20072;-82
2023/08/01 09:09:10;;;;;;;24.33;12.88;;;;;;;22.81;100.00;91798.09;4790002;30;20043;-84
2023/08/01 09:11:48;;;;;;;27.33;13.35;;;;;;;23.01;100.00;91790.53;4791686;29;20101;-83
2023/08/01 09:14:14;;;;;;;21.88;13.98;;;;;;;22.87;100.00;91801.16;4790708;30;20043;-84
2023/08/01 09:16:41;;;;;;;28.17;13.13;;;;;;;22.84;100.00;91796.56;4791040;29;20047;-84
2023/08/01 09:19:07;;;;;;;24.40;13.38;;;;;;;22.93;100.00;91794.31;4804958;29;20054;-83
2023/08/01 09:21:34;;;;;;;26.25;12.90;;;;;;;22.91;100.00;91793.91;4791096;30;20499;-83
2023/08/01 09:24:13;;;;;;;21.95;12.77;;;;;;;22.95;100.00;91784.00;4789446;29;20027;-83
2023/08/01 09:26:40;;;;;;;29.55;13.73;;;;;;;22.55;100.00;91782.41;4776019;30;20051;-83
2023/08/01 09:29:06;;;;;;;25.50;12.50;;;;;;;22.75;100.00;91772.94;4789539;30;20039;-83
2023/08/01 09:31:34;;;;;;;27.65;11.65;;;;;;;23.06;100.00;91774.13;4789450;29;20084;-84
2023/08/01 09:34:03;;;;;;;24.67;13.18;;;;;;;23.13;100.00;91780.63;4792080;29;20043;-84
2023/08/01 09:36:30;;;;;;;22.83;11.77;;;;;;;23.02;100.00;91773.38;4789758;29;20078;-83
2023/08/01 09:38:59;;;;;;;25.65;12.68;;;;;;;23.01;100.00;91758.50;4789915;29;20515;-84
2023/08/01 09:41:25;;;;;;;27.42;13.52;;;;;;;22.47;100.00;91757.63;4791280;29;20130;-84
2023/08/01 09:43:51;;;;;;;21.85;12.23;;;;;;;22.26;100.00;91762.91;4785792;30;20062;-82
2023/08/01 09:46:17;;;;;;;20.45;11.32;;;;;;;22.23;100.00;91765.19;4759436;30;20471;-83
2023/08/01 09:48:43;;;;;;;19.52;11.18;;;;;;;22.62;100.00;91767.19;4789911;29;20724;-81
2023/08/01 09:51:13;;;;;;;23.40;10.60;;;;;;;22.48;100.00;91759.16;4785945;30;20051;-83
2023/08/01 09:53:50;;;;;;;22.50;11.30;;;;;;;22.54;100.00;91755.00;4788669;29;20418;-83
2023/08/01 09:56:20;;;;;;;24.67;12.95;;;;;;;22.74;100.00;91749.28;4786313;29;20054;-83
2023/08/01 09:58:46;;;;;;;27.80;13.80;;;;;;;22.88;100.00;91744.00;4787519;30;20039;-83
2023/08/01 10:01:14;;;;;;;22.08;12.40;;;;;;;23.18;100.00;91734.84;4787110;30;20526;-83
2023/08/01 10:03:46;;;;;;;26.33;12.48;;;;;;;22.97;100.00;91733.69;4789040;29;20039;-83
2023/08/01 10:06:17;;;;;;;18.90;9.65;;;;;;;23.48;100.00;91732.53;4786752;29;20047;-83
2023/08/01 10:08:44;;;;;;;24.50;12.60;;;;;;;23.30;100.00;91733.69;4786053;29;20051;-83
2023/08/01 10:11:11;;;;;;;27.60;11.70;;;;;;;23.25;100.00;91734.84;4782458;30;20040;-83
2023/08/01 10:13:37;;;;;;;29.83;12.68;;;;;;;23.48;100.00;91731.75;4794877;29;20136;-81
2023/08/01 10:16:03;;;;;;;23.00;10.77;;;;;;;23.60;100.00;91734.03;4802592;29;20521;-83
2023/08/01 10:18:30;;;;;;;24.35;12.05;;;;;;;23.17;100.00;91730.66;4791758;29;20035;-83
2023/08/01 10:20:57;;;;;;;30.63;13.13;;;;;;;23.02;100.00;91737.91;4789677;29;20046;-83
2023/08/01 10:23:23;;;;;;;24.38;13.02;;;;;;;22.86;100.00;91736.34;4788191;30;20063;-82
2023/08/01 10:25:49;;;;;;;31.55;12.35;;;;;;;;;;4787720;29;20525;-83
2023/08/01 10:28:15;;;;;;;20.95;11.75;;;;;;;22.54;100.00;91738.22;4781994;30;20058;-83
2023/08/01 10:30:40;;;;;;;24.20;12.35;;;;;;;22.27;100.00;91721.78;4789620;29;20049;-83
2023/08/01 10:33:11;;;;;;;27.60;12.93;;;;;;;22.17;100.00;91729.34;4790558;29;20039;-83
2023/08/01 10:35:39;;;;;;;32.33;14.50;;;;;;;22.16;100.00;91727.06;4790064;30;20120;-81
2023/08/01 10:38:11;;;;;;;24.55;12.88;;;;;;;21.96;100.00;91721.28;4790415;29;20264;-82
2023/08/01 10:40:39;;;;;;;23.58;12.13;;;;;;;21.85;100.00;91718.56;4790000;30;20035;-84
2023/08/01 10:43:05;;;;;;;25.55;14.18;;;;;;;22.16;100.00;91725.16;4772918;30;20116;-83
2023/08/01 10:45:31;;;;;;;26.83;13.35;;;;;;;22.30;100.00;91727.13;4788635;29;20062;-83
2023/08/01 10:48:08;;;;;;;25.73;12.20;;;;;;;22.75;100.00;91714.25;4788943;29;20043;-82
2023/08/01 10:50:33;;;;;;;22.45;11.60;;;;;;;22.95;100.00;91695.19;4787406;29;20051;-81
2023/08/01 10:53:08;;;;;;;17.63;10.05;;;;;;;22.96;100.00;91691.38;4769918;29;20044;-83
2023/08/01 10:55:45;;;;;;;28.67;13.10;;;;;;;22.68;100.00;91700.16;4783355;30;20043;-82
2023/08/01 10:58:11;;;;;;;23.90;11.55;;;;;;;22.90;100.00;91691.00;4788845;30;20292;-83
2023/08/01 11:00:37;;;;;;;21.90;11.25;;;;;;;23.13;100.00;91689.88;4788638;29;20034;-83
2023/08/01 11:03:02;;;;;;;22.77;12.05;;;;;;;23.21;100.00;91699.38;4786149;29;20043;-83
2023/08/01 11:05:29;;;;;;;21.00;12.77;;;;;;;23.34;100.00;91689.06;4788173;30;20070;-84
2023/08/01 11:08:03;;;;;;;30.15;12.45;;;;;;;23.74;100.00;91685.16;4789181;29;20047;-81